createdAt,value
2018-03-24T00:01:16.210Z,-49
2018-03-24T00:03:41.992Z,-49
2018-03-24T00:06:07.747Z,-49
2018-03-24T00:08:33.489Z,-49
2018-03-24T00:10:59.249Z,-50
2018-03-24T00:13:25.000Z,-49
2018-03-24T00:15:50.753Z,-49
2018-03-24T00:18:16.526Z,-50
2018-03-24T00:20:42.348Z,-49
2018-03-24T00:23:08.100Z,-49
2018-03-24T00:25:34.225Z,-49
2018-03-24T00:27:59.991Z,-50
2018-03-24T00:30:25.745Z,-49
2018-03-24T00:32:51.513Z,-49
2018-03-24T00:35:17.297Z,-49
2018-03-24T00:37:43.049Z,-49
2018-03-24T00:40:08.829Z,-49
2018-03-24T00:42:34.601Z,-50
2018-03-24T00:45:00.365Z,-50
2018-03-24T00:47:26.131Z,-49
2018-03-24T00:50:07.178Z,-49
2018-03-24T00:52:33.019Z,-49
2018-03-24T00:54:58.744Z,-49
2018-03-24T00:57:24.504Z,-49
2018-03-24T00:59:50.275Z,-49
2018-03-24T01:02:16.029Z,-49
2018-03-24T01:04:41.790Z,-49
2018-03-24T01:07:07.552Z,-49
2018-03-24T01:09:33.305Z,-49
2018-03-24T01:11:59.077Z,-49
2018-03-24T01:14:24.837Z,-49
2018-03-24T01:16:50.591Z,-48
2018-03-24T01:19:16.368Z,-49
2018-03-24T01:21:42.133Z,-49
2018-03-24T01:24:08.321Z,-48
2018-03-24T01:26:34.093Z,-49
2018-03-24T01:28:59.862Z,-52
2018-03-24T01:31:25.616Z,-48
2018-03-24T01:33:51.397Z,-50
2018-03-24T01:36:17.186Z,-49
2018-03-24T01:38:42.953Z,-49
2018-03-24T01:41:09.046Z,-49
2018-03-24T01:43:34.817Z,-49
2018-03-24T01:46:00.581Z,-49
2018-03-24T01:48:26.365Z,-49
2018-03-24T01:50:52.121Z,-48
2018-03-24T01:53:17.936Z,-49
2018-03-24T01:55:43.717Z,-49
2018-03-24T01:58:10.090Z,-49
2018-03-24T02:00:35.846Z,-49
2018-03-24T02:03:01.648Z,-49
2018-03-24T02:05:27.385Z,-49
2018-03-24T02:07:53.166Z,-49
2018-03-24T02:10:18.963Z,-49
2018-03-24T02:12:44.713Z,-50
2018-03-24T02:15:10.469Z,-50
2018-03-24T02:17:36.254Z,-50
2018-03-24T02:20:02.043Z,-50
2018-03-24T02:22:28.262Z,-48
2018-03-24T02:24:56.814Z,-49
2018-03-24T02:27:22.576Z,-48
2018-03-24T02:29:48.353Z,-49
2018-03-24T02:32:14.174Z,-49
2018-03-24T02:34:39.931Z,-49
2018-03-24T02:37:05.718Z,-49
2018-03-24T02:39:31.485Z,-49
2018-03-24T02:41:57.272Z,-49
2018-03-24T02:44:23.021Z,-49
2018-03-24T02:46:48.791Z,-48
2018-03-24T02:49:14.541Z,-49
2018-03-24T02:51:40.280Z,-49
2018-03-24T02:54:06.389Z,-49
2018-03-24T02:56:32.145Z,-49
2018-03-24T02:58:57.907Z,-49
2018-03-24T03:01:23.693Z,-49
2018-03-24T03:03:49.440Z,-49
2018-03-24T03:06:15.213Z,-48
2018-03-24T03:08:40.977Z,-49
2018-03-24T03:11:06.753Z,-49
2018-03-24T03:13:32.576Z,-49
2018-03-24T03:15:58.336Z,-49
2018-03-24T03:18:24.986Z,-49
2018-03-24T03:20:51.112Z,-49
2018-03-24T03:23:16.888Z,-49
2018-03-24T03:25:42.672Z,-49
2018-03-24T03:28:08.451Z,-49
2018-03-24T03:30:38.190Z,-49
2018-03-24T03:33:04.015Z,-49
2018-03-24T03:35:29.734Z,-50
2018-03-24T03:37:55.825Z,-50
2018-03-24T03:40:21.581Z,-49
2018-03-24T03:42:47.334Z,-49
2018-03-24T03:45:13.117Z,-49
2018-03-24T03:47:38.869Z,-49
2018-03-24T03:50:04.637Z,-49
2018-03-24T03:52:30.437Z,-49
2018-03-24T03:54:56.559Z,-48
2018-03-24T03:57:22.324Z,-49
2018-03-24T03:59:48.117Z,-49
2018-03-24T04:02:13.874Z,-49
2018-03-24T04:04:39.642Z,-49
2018-03-24T04:07:05.404Z,-49
2018-03-24T04:09:31.165Z,-51
2018-03-24T04:11:56.966Z,-49
2018-03-24T04:14:22.724Z,-49
2018-03-24T04:16:48.470Z,-50
2018-03-24T04:19:14.248Z,-49
2018-03-24T04:21:40.544Z,-49
2018-03-24T04:24:06.286Z,-49
2018-03-24T04:26:32.080Z,-49
2018-03-24T04:28:57.827Z,-48
2018-03-24T04:31:23.589Z,-49
2018-03-24T04:33:49.369Z,-49
2018-03-24T04:36:15.116Z,-49
2018-03-24T04:38:41.093Z,-48
2018-03-24T04:41:06.857Z,-49
2018-03-24T04:43:32.621Z,-49
2018-03-24T04:45:58.382Z,-49
2018-03-24T04:48:24.173Z,-49
2018-03-24T04:50:49.929Z,-49
2018-03-24T04:53:15.702Z,-49
2018-03-24T04:55:41.843Z,-49
2018-03-24T04:58:07.589Z,-49
2018-03-24T05:00:33.344Z,-49
2018-03-24T05:02:59.109Z,-48
2018-03-24T05:05:24.882Z,-49
2018-03-24T05:07:50.644Z,-49
2018-03-24T05:10:16.417Z,-48
2018-03-24T05:12:42.168Z,-49
2018-03-24T05:15:07.925Z,-49
2018-03-24T05:17:33.681Z,-49
2018-03-24T05:19:59.928Z,-49
2018-03-24T05:22:25.743Z,-49
2018-03-24T05:24:51.482Z,-49
2018-03-24T05:27:17.242Z,-48
2018-03-24T05:29:43.025Z,-48
2018-03-24T05:32:08.803Z,-49
2018-03-24T05:34:34.549Z,-49
2018-03-24T05:37:00.337Z,-49
2018-03-24T05:39:26.081Z,-49
2018-03-24T05:41:51.837Z,-49
2018-03-24T05:44:17.611Z,-52
2018-03-24T05:46:43.381Z,-49
2018-03-24T05:49:09.246Z,-49
2018-03-24T05:51:35.353Z,-49
2018-03-24T05:54:01.101Z,-48
2018-03-24T05:56:26.865Z,-49
2018-03-24T05:58:52.633Z,-49
2018-03-24T06:01:18.431Z,-49
2018-03-24T06:03:44.180Z,-49
2018-03-24T06:06:09.969Z,-49
2018-03-24T06:08:35.769Z,-49
2018-03-24T06:11:01.540Z,-49
2018-03-24T06:13:27.320Z,-49
2018-03-24T06:15:53.093Z,-49
2018-03-24T06:18:19.537Z,-49
2018-03-24T06:20:45.345Z,-49
2018-03-24T06:23:11.107Z,-49
2018-03-24T06:25:36.887Z,-49
2018-03-24T06:28:02.666Z,-49
2018-03-24T06:30:29.281Z,-49
2018-03-24T06:32:55.065Z,-49
2018-03-24T06:35:21.235Z,-48
2018-03-24T06:37:47.067Z,-49
2018-03-24T06:40:12.864Z,-49
2018-03-24T06:42:38.608Z,-50
2018-03-24T06:45:04.349Z,-50
2018-03-24T06:47:30.136Z,-48
2018-03-24T06:49:55.880Z,-48
2018-03-24T06:52:21.631Z,-48
2018-03-24T06:54:47.661Z,-48
2018-03-24T06:57:13.438Z,-48
2018-03-24T06:59:39.204Z,-49
2018-03-24T07:02:04.961Z,-49
2018-03-24T07:04:30.733Z,-48
2018-03-24T07:06:56.497Z,-49
2018-03-24T07:09:22.265Z,-48
2018-03-24T07:11:48.023Z,-48
2018-03-24T07:14:13.805Z,-48
2018-03-24T07:16:39.565Z,-48
2018-03-24T07:19:05.729Z,-48
2018-03-24T07:21:31.506Z,-48
2018-03-24T07:23:57.265Z,-48
2018-03-24T07:26:23.049Z,-48
2018-03-24T07:28:48.821Z,-49
2018-03-24T07:31:14.588Z,-48
2018-03-24T07:33:40.397Z,-48
2018-03-24T07:36:06.689Z,-48
2018-03-24T07:38:32.473Z,-48
2018-03-24T07:40:58.232Z,-49
2018-03-24T07:43:24.051Z,-49
2018-03-24T07:45:49.808Z,-49
2018-03-24T07:48:15.560Z,-49
2018-03-24T07:50:41.337Z,-50
2018-03-24T07:53:07.088Z,-49
2018-03-24T07:55:33.116Z,-51
2018-03-24T07:57:58.892Z,-49
2018-03-24T08:00:24.645Z,-49
2018-03-24T08:02:50.413Z,-50
2018-03-24T08:05:16.192Z,-49
2018-03-24T08:07:41.929Z,-49
2018-03-24T08:10:07.688Z,-48
2018-03-24T08:12:33.432Z,-50
2018-03-24T08:14:59.191Z,-49
2018-03-24T08:17:24.964Z,-48
2018-03-24T08:19:50.725Z,-48
2018-03-24T08:22:16.488Z,-48
2018-03-24T08:24:42.277Z,-48
2018-03-24T08:27:08.553Z,-49
2018-03-24T08:29:34.322Z,-49
2018-03-24T08:32:00.101Z,-49
2018-03-24T08:34:25.879Z,-49
2018-03-24T08:36:51.651Z,-49
2018-03-24T08:39:17.430Z,-49
2018-03-24T08:41:43.194Z,-49
2018-03-24T08:44:08.866Z,-49
2018-03-24T08:46:34.637Z,-49
2018-03-24T08:49:00.428Z,-49
2018-03-24T08:51:26.327Z,-48
2018-03-24T08:53:52.105Z,-48
2018-03-24T08:56:17.853Z,-49
2018-03-24T08:58:43.920Z,-48
2018-03-24T09:01:09.696Z,-49
2018-03-24T09:03:35.439Z,-49
2018-03-24T09:06:01.195Z,-49
2018-03-24T09:08:26.881Z,-48
2018-03-24T09:10:52.666Z,-49
2018-03-24T09:13:18.433Z,-49
2018-03-24T09:15:44.229Z,-49
2018-03-24T09:18:09.922Z,-49
2018-03-24T09:20:35.701Z,-49
2018-03-24T09:23:01.486Z,-49
2018-03-24T09:25:27.156Z,-49
2018-03-24T09:27:53.403Z,-49
2018-03-24T09:30:19.204Z,-49
2018-03-24T09:32:44.957Z,-49
2018-03-24T09:35:10.725Z,-49
2018-03-24T09:37:36.541Z,-49
2018-03-24T09:40:02.307Z,-49
2018-03-24T09:42:28.074Z,-49
2018-03-24T09:44:53.847Z,-50
2018-03-24T09:47:19.605Z,-50
2018-03-24T09:49:45.353Z,-50
2018-03-24T09:52:11.396Z,-50
2018-03-24T09:54:37.140Z,-49
2018-03-24T09:57:02.901Z,-50
2018-03-24T09:59:28.588Z,-50
2018-03-24T10:01:54.347Z,-49
2018-03-24T10:04:20.097Z,-50
2018-03-24T10:06:45.869Z,-50
2018-03-24T10:09:12.017Z,-50
2018-03-24T10:11:37.778Z,-49
2018-03-24T10:14:03.547Z,-50
2018-03-24T10:16:29.216Z,-49
2018-03-24T10:18:54.979Z,-49
2018-03-24T10:24:34.133Z,-47
2018-03-24T10:26:59.909Z,-47
2018-03-24T10:29:26.039Z,-47
2018-03-24T10:31:51.813Z,-46
2018-03-24T10:34:17.565Z,-47
2018-03-24T10:36:43.324Z,-46
2018-03-24T10:39:09.113Z,-46
2018-03-24T10:41:34.897Z,-47
2018-03-24T10:44:00.669Z,-46
2018-03-24T10:46:26.454Z,-46
2018-03-24T10:48:52.219Z,-47
2018-03-24T10:51:17.965Z,-46
2018-03-24T10:53:44.024Z,-47
2018-03-24T10:56:09.769Z,-47
2018-03-24T10:58:35.509Z,-47
2018-03-24T11:01:03.090Z,-47
2018-03-24T11:03:28.874Z,-47
2018-03-24T11:05:54.561Z,-47
2018-03-24T11:08:20.224Z,-47
2018-03-24T11:10:46.034Z,-47
2018-03-24T11:13:11.829Z,-47
2018-03-24T11:15:37.606Z,-47
2018-03-24T11:18:03.382Z,-47
2018-03-24T11:20:29.148Z,-47
2018-03-24T11:22:55.237Z,-47
2018-03-24T11:25:20.989Z,-47
2018-03-24T11:27:46.774Z,-47
2018-03-24T11:30:12.565Z,-48
2018-03-24T11:32:38.329Z,-48
2018-03-24T11:35:04.117Z,-48
2018-03-24T11:37:29.887Z,-46
2018-03-24T11:39:55.651Z,-47
2018-03-24T11:42:21.415Z,-48
2018-03-24T11:44:47.178Z,-47
2018-03-24T11:47:12.961Z,-47
2018-03-24T11:49:38.746Z,-47
2018-03-24T11:52:04.853Z,-50
2018-03-24T11:54:42.865Z,-47
2018-03-24T11:57:08.622Z,-48
2018-03-24T11:59:34.634Z,-47
2018-03-24T12:02:07.349Z,-47
2018-03-24T12:04:33.099Z,-47
2018-03-24T12:06:59.178Z,-47
2018-03-24T12:09:25.021Z,-47
2018-03-24T12:11:50.767Z,-47
2018-03-24T12:14:16.541Z,-47
2018-03-24T12:16:42.292Z,-47
2018-03-24T12:19:08.048Z,-47
2018-03-24T12:21:33.835Z,-47
2018-03-24T12:23:59.853Z,-47
2018-03-24T12:26:25.635Z,-47
2018-03-24T12:28:51.405Z,-47
2018-03-24T12:31:17.153Z,-47
2018-03-24T12:33:42.929Z,-48
2018-03-24T12:36:08.686Z,-47
2018-03-24T12:38:34.346Z,-47
2018-03-24T12:41:00.110Z,-47
2018-03-24T12:43:25.857Z,-47
2018-03-24T12:45:51.616Z,-47
2018-03-24T12:48:17.421Z,-47
2018-03-24T12:50:43.209Z,-47
2018-03-24T12:53:09.198Z,-48
2018-03-24T12:55:34.876Z,-47
2018-03-24T12:58:00.531Z,-47
2018-03-24T13:00:26.294Z,-48
2018-03-24T13:02:52.085Z,-47
2018-03-24T13:05:17.829Z,-48
2018-03-24T13:07:43.581Z,-47
2018-03-24T13:10:09.454Z,-47
2018-03-24T13:12:35.229Z,-50
2018-03-24T13:15:00.976Z,-47
2018-03-24T13:17:26.743Z,-48
2018-03-24T13:19:52.501Z,-47
2018-03-24T13:22:18.257Z,-47
2018-03-24T13:24:44.018Z,-48
2018-03-24T13:27:10.122Z,-47
2018-03-24T13:29:35.897Z,-49
2018-03-24T13:32:01.667Z,-47
2018-03-24T13:34:27.434Z,-47
2018-03-24T13:36:53.224Z,-47
2018-03-24T13:39:19.004Z,-47
2018-03-24T13:41:44.766Z,-47
2018-03-24T13:44:10.521Z,-47
2018-03-24T13:46:36.289Z,-47
2018-03-24T13:49:02.032Z,-47
2018-03-24T13:51:28.223Z,-47
2018-03-24T13:53:53.988Z,-47
2018-03-24T13:56:19.758Z,-48
2018-03-24T13:58:45.509Z,-47
2018-03-24T14:01:11.296Z,-47
2018-03-24T14:03:37.063Z,-47
2018-03-24T14:06:02.828Z,-47
2018-03-24T14:08:28.576Z,-47
2018-03-24T14:10:54.348Z,-47
2018-03-24T14:13:20.113Z,-47
2018-03-24T14:15:45.876Z,-47
2018-03-24T14:18:11.640Z,-47
2018-03-24T14:20:37.422Z,-47
2018-03-24T14:23:03.173Z,-47
2018-03-24T14:25:29.266Z,-47
2018-03-24T14:27:55.037Z,-47
2018-03-24T14:30:20.796Z,-47
2018-03-24T14:32:46.542Z,-47
2018-03-24T14:35:12.333Z,-47
2018-03-24T14:37:38.101Z,-47
2018-03-24T14:40:03.878Z,-46
2018-03-24T14:42:29.621Z,-47
2018-03-24T14:44:55.369Z,-47
2018-03-24T14:47:21.118Z,-47
2018-03-24T14:49:46.873Z,-47
2018-03-24T14:52:12.955Z,-47
2018-03-24T14:54:38.719Z,-47
2018-03-24T14:57:04.485Z,-47
2018-03-24T14:59:30.236Z,-47
2018-03-24T15:01:55.991Z,-47
2018-03-24T15:04:21.758Z,-47
2018-03-24T15:06:47.557Z,-46
2018-03-24T15:09:13.791Z,-47
2018-03-24T15:11:39.552Z,-46
2018-03-24T15:14:05.344Z,-46
2018-03-24T15:16:31.109Z,-46
2018-03-24T15:18:56.902Z,-46
2018-03-24T15:21:22.663Z,-46
2018-03-24T15:23:48.836Z,-46
2018-03-24T15:26:14.601Z,-45
2018-03-24T15:28:53.245Z,-46
2018-03-24T15:31:31.301Z,-46
2018-03-24T15:34:09.373Z,-46
2018-03-24T15:36:41.594Z,-46
2018-03-24T15:39:07.382Z,-46
2018-03-24T15:41:33.161Z,-45
2018-03-24T15:43:58.945Z,-45
2018-03-24T15:46:24.726Z,-45
2018-03-24T15:48:50.490Z,-45
2018-03-24T15:51:16.336Z,-46
2018-03-24T15:53:42.505Z,-46
2018-03-24T15:56:08.351Z,-47
2018-03-24T15:58:34.117Z,-46
2018-03-24T16:00:59.956Z,-46
2018-03-24T16:03:25.775Z,-46
2018-03-24T16:05:51.557Z,-46
2018-03-24T16:08:17.322Z,-46
2018-03-24T16:10:43.077Z,-46
2018-03-24T16:21:46.825Z,-45
2018-03-24T16:24:12.589Z,-45
2018-03-24T16:26:38.602Z,-47
2018-03-24T16:29:04.385Z,-46
2018-03-24T16:31:30.137Z,-46
2018-03-24T16:33:55.901Z,-46
2018-03-24T16:36:21.673Z,-46
2018-03-24T16:38:47.436Z,-46
2018-03-24T16:41:13.177Z,-46
2018-03-24T16:43:38.960Z,-46
2018-03-24T16:46:04.726Z,-46
2018-03-24T16:48:30.471Z,-46
2018-03-24T16:50:56.257Z,-46
2018-03-24T16:53:22.018Z,-45
2018-03-24T16:55:48.207Z,-46
2018-03-24T16:58:13.982Z,-46
2018-03-24T17:00:39.722Z,-46
2018-03-24T17:03:05.484Z,-45
2018-03-24T17:05:31.256Z,-45
2018-03-24T17:07:57.017Z,-45
2018-03-24T17:10:22.775Z,-46
2018-03-24T17:12:48.546Z,-45
2018-03-24T17:15:14.321Z,-46
2018-03-24T17:17:40.109Z,-46
2018-03-24T17:20:05.881Z,-45
2018-03-24T17:22:31.667Z,-45
2018-03-24T17:24:57.460Z,-45
2018-03-24T17:27:23.668Z,-45
2018-03-24T17:29:49.425Z,-45
2018-03-24T17:32:15.188Z,-45
2018-03-24T17:34:40.945Z,-45
2018-03-24T17:37:06.716Z,-46
2018-03-24T17:39:32.466Z,-46
2018-03-24T17:41:58.233Z,-45
2018-03-24T17:44:24.139Z,-45
2018-03-24T17:46:49.797Z,-46
2018-03-24T17:49:15.529Z,-46
2018-03-24T17:51:41.317Z,-46
2018-03-24T17:54:07.089Z,-45
2018-03-24T17:56:33.281Z,-46
2018-03-24T17:58:59.056Z,-45
2018-03-24T18:01:24.816Z,-46
2018-03-24T18:03:50.553Z,-45
2018-03-24T18:06:16.317Z,-46
2018-03-24T18:08:42.065Z,-46
2018-03-24T18:11:07.837Z,-47
2018-03-24T18:13:33.581Z,-46
2018-03-24T18:15:59.318Z,-46
2018-03-24T18:18:25.102Z,-45
2018-03-24T18:20:51.090Z,-45
2018-03-24T18:23:16.865Z,-46
2018-03-24T18:25:42.658Z,-46
2018-03-24T18:28:09.028Z,-47
2018-03-24T18:30:34.793Z,-45
2018-03-24T18:33:00.631Z,-45
2018-03-24T18:35:26.329Z,-45
2018-03-24T18:37:52.084Z,-45
2018-03-24T18:40:17.860Z,-45
2018-03-24T18:42:43.618Z,-46
2018-03-24T18:45:09.373Z,-46
2018-03-24T18:47:35.136Z,-45
2018-03-24T18:50:00.885Z,-45
2018-03-24T18:52:26.661Z,-45
2018-03-24T18:54:52.455Z,-45
2018-03-24T18:57:18.632Z,-46
2018-03-24T18:59:44.399Z,-46
2018-03-24T19:02:10.451Z,-45
2018-03-24T19:04:36.249Z,-45
2018-03-24T19:07:02.001Z,-45
2018-03-24T19:09:27.812Z,-45
2018-03-24T19:11:53.588Z,-45
2018-03-24T19:14:19.352Z,-45
2018-03-24T19:16:45.113Z,-45
2018-03-24T19:19:10.860Z,-46
2018-03-24T19:21:36.606Z,-46
2018-03-24T19:24:02.801Z,-46
2018-03-24T19:26:28.574Z,-46
2018-03-24T19:28:54.340Z,-45
2018-03-24T19:31:20.105Z,-45
2018-03-24T19:33:45.881Z,-46
2018-03-24T19:36:11.674Z,-46
2018-03-24T19:38:37.437Z,-46
2018-03-24T19:41:03.186Z,-46
2018-03-24T19:43:28.936Z,-46
2018-03-24T19:45:54.696Z,-45
2018-03-24T19:48:20.429Z,-46
2018-03-24T19:50:46.160Z,-46
2018-03-24T19:53:12.379Z,-46
2018-03-24T19:55:38.133Z,-46
2018-03-24T19:58:03.904Z,-46
2018-03-24T20:00:29.714Z,-46
2018-03-24T20:02:55.449Z,-46
2018-03-24T20:05:21.189Z,-46
2018-03-24T20:07:46.964Z,-46
2018-03-24T20:10:12.721Z,-46
2018-03-24T20:12:38.479Z,-47
2018-03-24T20:15:04.246Z,-46
2018-03-24T20:17:30.017Z,-46
2018-03-24T20:19:55.772Z,-46
2018-03-24T20:22:21.565Z,-46
2018-03-24T20:24:47.714Z,-47
2018-03-24T20:27:13.457Z,-46
2018-03-24T20:29:39.242Z,-46
2018-03-24T20:32:05.012Z,-46
2018-03-24T20:34:30.856Z,-45
2018-03-24T20:36:56.642Z,-46
2018-03-24T20:39:22.386Z,-46
2018-03-24T20:41:48.188Z,-46
2018-03-24T20:44:13.949Z,-47
2018-03-24T20:46:39.704Z,-46
2018-03-24T20:49:05.480Z,-46
2018-03-24T20:51:31.238Z,-46
2018-03-24T20:53:56.989Z,-46
2018-03-24T20:56:23.469Z,-46
2018-03-24T20:58:49.230Z,-46
2018-03-24T21:01:14.992Z,-46
2018-03-24T21:03:40.750Z,-46
2018-03-24T21:06:06.521Z,-46
2018-03-24T21:08:32.271Z,-46
2018-03-24T21:10:58.029Z,-46
2018-03-24T21:13:23.780Z,-45
2018-03-24T21:15:49.536Z,-46
2018-03-24T21:18:15.286Z,-46
2018-03-24T21:20:41.460Z,-46
2018-03-24T21:23:07.214Z,-45
2018-03-24T21:25:32.981Z,-45
2018-03-24T21:27:58.713Z,-46
2018-03-24T21:30:24.465Z,-45
2018-03-24T21:32:50.237Z,-46
2018-03-24T21:35:15.986Z,-46
2018-03-24T21:37:42.169Z,-46
2018-03-24T21:40:08.001Z,-46
2018-03-24T21:42:33.749Z,-46
2018-03-24T21:44:59.527Z,-46
2018-03-24T21:47:25.297Z,-47
2018-03-24T21:49:51.060Z,-46
2018-03-24T21:52:16.842Z,-46
2018-03-24T21:54:42.609Z,-46
2018-03-24T21:57:08.357Z,-46
2018-03-24T21:59:34.114Z,-46
2018-03-24T22:02:00.535Z,-46
2018-03-24T22:04:26.293Z,-46
2018-03-24T22:06:52.074Z,-47
2018-03-24T22:09:17.832Z,-47
2018-03-24T22:11:43.582Z,-47
2018-03-24T22:14:09.350Z,-49
2018-03-24T22:16:35.101Z,-47
2018-03-24T22:19:00.891Z,-47
2018-03-24T22:21:26.678Z,-47
2018-03-24T22:23:52.437Z,-47
2018-03-24T22:26:18.184Z,-47
2018-03-24T22:28:44.391Z,-47
2018-03-24T22:31:10.226Z,-47
2018-03-24T22:33:35.970Z,-47
2018-03-24T22:36:01.740Z,-47
2018-03-24T22:38:27.506Z,-47
2018-03-24T22:40:53.265Z,-47
2018-03-24T22:43:19.037Z,-47
2018-03-24T22:45:44.791Z,-46
2018-03-24T22:48:10.549Z,-48
2018-03-24T22:50:36.338Z,-47
2018-03-24T22:53:02.080Z,-46
2018-03-24T22:55:28.363Z,-47
2018-03-24T22:57:54.129Z,-47
2018-03-24T23:00:19.889Z,-47
2018-03-24T23:02:45.654Z,-47
2018-03-24T23:05:11.416Z,-47
2018-03-24T23:07:37.231Z,-47
2018-03-24T23:10:03.037Z,-47
2018-03-24T23:12:28.782Z,-46
2018-03-24T23:14:54.682Z,-46
2018-03-24T23:20:04.626Z,-45
2018-03-24T23:22:30.724Z,-45
2018-03-24T23:24:56.491Z,-45
2018-03-24T23:27:22.244Z,-45
2018-03-24T23:29:47.985Z,-46
2018-03-24T23:32:13.721Z,-45
2018-03-24T23:34:39.482Z,-45
2018-03-24T23:37:05.244Z,-47
2018-03-24T23:39:30.997Z,-45
2018-03-24T23:41:56.769Z,-46
2018-03-24T23:44:22.508Z,-46
2018-03-24T23:46:48.280Z,-45
2018-03-24T23:49:14.041Z,-46
2018-03-24T23:51:39.789Z,-46
2018-03-24T23:54:05.777Z,-45
2018-03-24T23:56:31.552Z,-46
2018-03-24T23:58:57.305Z,-45
